createdAt,value
2018-12-07T00:01:45.949Z,11.10
2018-12-07T00:04:20.543Z,11.10
2018-12-07T00:06:54.897Z,11.10
2018-12-07T00:09:29.701Z,11.10
2018-12-07T00:12:04.327Z,11.10
2018-12-07T00:14:38.710Z,11.10
2018-12-07T00:17:13.389Z,11.10
2018-12-07T00:19:49.559Z,11.10
2018-12-07T00:22:23.793Z,11.10
2018-12-07T00:24:58.341Z,11.10
2018-12-07T00:27:32.817Z,11.10
2018-12-07T00:30:06.911Z,11.10
2018-12-07T00:32:41.539Z,11.10
2018-12-07T00:35:15.650Z,11.10
2018-12-07T00:37:49.682Z,11.10
2018-12-07T00:40:23.640Z,11.10
2018-12-07T00:42:58.028Z,11.10
2018-12-07T00:45:32.758Z,11.10
2018-12-07T00:48:07.459Z,11.20
2018-12-07T00:50:41.432Z,11.10
2018-12-07T00:53:15.987Z,11.10
2018-12-07T00:55:50.509Z,11.10
2018-12-07T00:58:24.846Z,11.10
2018-12-07T01:00:59.444Z,11.10
2018-12-07T01:03:34.202Z,11.20
2018-12-07T01:06:08.262Z,11.20
2018-12-07T01:08:42.323Z,11.20
2018-12-07T01:11:16.316Z,11.20
2018-12-07T01:13:50.542Z,11.10
2018-12-07T01:16:24.492Z,11.10
2018-12-07T01:18:59.322Z,11.10
2018-12-07T01:21:33.329Z,11.10
2018-12-07T01:24:07.763Z,11.10
2018-12-07T01:26:41.726Z,11.10
2018-12-07T01:29:16.162Z,11.10
2018-12-07T01:31:50.131Z,11.10
2018-12-07T01:34:24.490Z,11.10
2018-12-07T01:36:58.605Z,11.10
2018-12-07T01:39:32.823Z,11.00
2018-12-07T01:42:06.940Z,11.10
2018-12-07T01:44:41.239Z,11.10
2018-12-07T01:47:15.739Z,11.10
2018-12-07T01:49:50.401Z,11.10
2018-12-07T01:52:24.807Z,11.00
2018-12-07T01:54:59.143Z,11.10
2018-12-07T01:57:33.551Z,11.00
2018-12-07T02:00:08.412Z,11.00
2018-12-07T02:02:42.511Z,11.00
2018-12-07T02:05:16.809Z,11.00
2018-12-07T02:07:51.047Z,11.00
2018-12-07T02:10:25.490Z,11.00
2018-12-07T02:12:59.784Z,11.00
2018-12-07T02:15:34.402Z,11.00
2018-12-07T02:18:08.639Z,11.00
2018-12-07T02:20:42.768Z,11.00
2018-12-07T02:23:16.954Z,11.00
2018-12-07T02:25:51.060Z,11.00
2018-12-07T02:28:25.186Z,11.00
2018-12-07T02:30:59.277Z,11.00
2018-12-07T02:33:33.727Z,11.00
2018-12-07T02:36:07.763Z,11.00
2018-12-07T02:38:42.270Z,11.00
2018-12-07T02:41:16.908Z,11.00
2018-12-07T02:43:51.209Z,11.00
2018-12-07T02:46:25.307Z,11.00
2018-12-07T02:48:59.816Z,11.00
2018-12-07T02:51:33.859Z,11.00
2018-12-07T02:54:07.960Z,11.00
2018-12-07T02:56:42.086Z,10.90
2018-12-07T02:59:16.303Z,11.00
2018-12-07T03:01:50.273Z,11.00
2018-12-07T03:04:24.620Z,11.00
2018-12-07T03:06:59.350Z,11.00
2018-12-07T03:09:34.369Z,11.00
2018-12-07T03:12:08.410Z,11.00
2018-12-07T03:14:42.939Z,11.00
2018-12-07T03:17:17.054Z,11.00
2018-12-07T03:19:51.159Z,11.00
2018-12-07T03:22:25.281Z,11.00
2018-12-07T03:24:59.683Z,11.00
2018-12-07T03:27:33.763Z,11.00
2018-12-07T03:30:08.115Z,11.00
2018-12-07T03:32:42.114Z,11.00
2018-12-07T03:35:16.720Z,11.00
2018-12-07T03:37:50.724Z,11.00
2018-12-07T03:40:26.244Z,11.00
2018-12-07T03:43:00.342Z,11.00
2018-12-07T03:45:35.432Z,11.00
2018-12-07T03:48:09.782Z,11.00
2018-12-07T03:50:44.312Z,11.00
2018-12-07T03:53:18.655Z,11.00
2018-12-07T03:55:52.857Z,11.10
2018-12-07T03:58:26.956Z,11.00
2018-12-07T04:01:01.272Z,11.00
2018-12-07T04:03:35.283Z,11.00
2018-12-07T04:06:10.013Z,11.00
2018-12-07T04:08:43.913Z,11.10
2018-12-07T04:11:18.854Z,11.10
2018-12-07T04:13:52.851Z,11.00
2018-12-07T04:16:27.085Z,11.10
2018-12-07T04:19:01.182Z,11.10
2018-12-07T04:21:36.034Z,11.10
2018-12-07T04:24:09.883Z,11.10
2018-12-07T04:26:44.363Z,11.00
2018-12-07T04:29:18.347Z,11.10
2018-12-07T04:31:52.483Z,11.10
2018-12-07T04:34:26.601Z,11.10
2018-12-07T04:37:00.819Z,11.10
2018-12-07T04:39:35.431Z,11.10
2018-12-07T04:42:09.659Z,11.10
2018-12-07T04:44:43.798Z,11.10
2018-12-07T04:47:18.088Z,11.10
2018-12-07T04:49:52.231Z,11.10
2018-12-07T04:52:26.425Z,11.10
2018-12-07T04:55:00.450Z,11.10
2018-12-07T04:57:34.883Z,11.10
2018-12-07T05:00:08.955Z,11.10
2018-12-07T05:02:43.191Z,11.10
2018-12-07T05:05:17.595Z,11.10
2018-12-07T05:07:52.127Z,11.10
2018-12-07T05:10:26.230Z,11.10
2018-12-07T05:13:01.060Z,11.10
2018-12-07T05:15:34.856Z,11.10
2018-12-07T05:18:09.112Z,11.10
2018-12-07T05:20:43.298Z,11.10
2018-12-07T05:23:17.839Z,11.10
2018-12-07T05:25:52.256Z,11.10
2018-12-07T05:28:26.471Z,11.10
2018-12-07T05:31:01.560Z,11.10
2018-12-07T05:33:35.701Z,11.10
2018-12-07T05:36:10.143Z,11.10
2018-12-07T05:38:44.560Z,11.10
2018-12-07T05:41:18.563Z,11.10
2018-12-07T05:43:56.613Z,11.10
2018-12-07T05:46:30.803Z,11.10
2018-12-07T05:49:04.855Z,11.10
2018-12-07T05:51:39.628Z,11.10
2018-12-07T05:54:13.701Z,11.10
2018-12-07T05:56:48.278Z,11.10
2018-12-07T05:59:23.814Z,11.10
2018-12-07T06:01:58.451Z,11.10
2018-12-07T06:04:32.548Z,11.10
2018-12-07T06:07:06.790Z,11.10
2018-12-07T06:09:40.880Z,11.10
2018-12-07T06:12:15.611Z,11.10
2018-12-07T06:14:49.686Z,11.10
2018-12-07T06:17:24.345Z,11.10
2018-12-07T06:19:58.154Z,11.20
2018-12-07T06:22:32.592Z,11.10
2018-12-07T06:25:06.667Z,11.20
2018-12-07T06:27:41.022Z,11.10
2018-12-07T06:30:16.388Z,11.10
2018-12-07T06:32:51.077Z,11.10
2018-12-07T06:35:24.900Z,11.10
2018-12-07T06:37:59.253Z,11.20
2018-12-07T06:40:33.275Z,11.20
2018-12-07T06:43:07.655Z,11.20
2018-12-07T06:45:42.079Z,11.20
2018-12-07T06:48:16.292Z,11.10
2018-12-07T06:50:50.292Z,11.20
2018-12-07T06:53:24.472Z,11.10
2018-12-07T06:55:59.044Z,11.10
2018-12-07T06:58:33.259Z,11.10
2018-12-07T07:01:07.256Z,11.10
2018-12-07T07:03:41.394Z,11.10
2018-12-07T07:06:15.315Z,11.10
2018-12-07T07:08:50.214Z,11.20
2018-12-07T07:11:24.203Z,11.20
2018-12-07T07:13:58.562Z,11.20
2018-12-07T07:16:32.559Z,11.20
2018-12-07T07:19:06.803Z,11.20
2018-12-07T07:21:41.034Z,11.20
2018-12-07T07:24:15.102Z,11.20
2018-12-07T07:26:49.595Z,11.20
2018-12-07T07:29:23.861Z,11.20
2018-12-07T07:31:57.968Z,11.20
2018-12-07T07:34:32.109Z,11.20
2018-12-07T07:37:06.166Z,11.20
2018-12-07T07:39:40.796Z,11.20
2018-12-07T07:42:14.678Z,11.20
2018-12-07T07:44:48.857Z,11.20
2018-12-07T07:47:22.799Z,11.20
2018-12-07T07:49:56.976Z,11.20
2018-12-07T07:52:31.080Z,11.20
2018-12-07T07:55:05.445Z,11.20
2018-12-07T07:57:39.633Z,11.20
2018-12-07T08:00:13.912Z,11.20
2018-12-07T08:02:47.955Z,11.20
2018-12-07T08:05:22.151Z,11.20
2018-12-07T08:07:56.167Z,11.20
2018-12-07T08:10:30.331Z,11.20
2018-12-07T08:13:04.439Z,11.20
2018-12-07T08:15:38.659Z,11.20
2018-12-07T08:18:12.755Z,11.20
2018-12-07T08:20:47.502Z,11.20
2018-12-07T08:23:21.591Z,11.30
2018-12-07T08:25:55.829Z,11.30
2018-12-07T08:28:29.851Z,11.30
2018-12-07T08:31:03.962Z,11.30
2018-12-07T08:33:38.110Z,11.30
2018-12-07T08:36:12.774Z,11.30
2018-12-07T08:38:46.883Z,11.30
2018-12-07T08:41:21.092Z,11.30
2018-12-07T08:43:55.062Z,11.40
2018-12-07T08:46:29.783Z,11.40
2018-12-07T08:49:03.810Z,11.40
2018-12-07T08:51:38.281Z,11.40
2018-12-07T08:54:12.279Z,11.40
2018-12-07T08:56:46.308Z,11.40
2018-12-07T08:59:20.354Z,11.40
2018-12-07T09:01:54.598Z,11.40
2018-12-07T09:04:28.655Z,11.40
2018-12-07T09:07:02.782Z,11.40
2018-12-07T09:09:36.859Z,11.40
2018-12-07T09:12:10.868Z,11.40
2018-12-07T09:14:44.891Z,11.40
2018-12-07T09:17:18.894Z,11.40
2018-12-07T09:19:53.410Z,11.40
2018-12-07T09:22:27.432Z,11.50
2018-12-07T09:25:01.528Z,11.40
2018-12-07T09:27:35.718Z,11.50
2018-12-07T09:30:09.862Z,11.40
2018-12-07T09:32:44.074Z,11.40
2018-12-07T09:35:18.107Z,11.40
2018-12-07T09:37:52.302Z,11.40
2018-12-07T09:40:26.822Z,11.40
2018-12-07T09:43:00.958Z,11.40
2018-12-07T09:45:35.040Z,11.40
2018-12-07T09:48:09.118Z,11.50
2018-12-07T09:50:43.199Z,11.50
2018-12-07T09:53:17.430Z,11.50
2018-12-07T09:55:51.535Z,11.50
2018-12-07T09:58:25.733Z,11.50
2018-12-07T10:00:59.723Z,11.50
2018-12-07T10:03:34.001Z,11.50
2018-12-07T10:06:08.133Z,11.50
2018-12-07T10:08:42.292Z,11.50
2018-12-07T10:11:16.235Z,11.50
2018-12-07T10:13:50.329Z,11.50
2018-12-07T10:16:24.318Z,11.50
2018-12-07T10:18:58.598Z,11.50
2018-12-07T10:21:32.601Z,11.50
2018-12-07T10:24:06.819Z,11.50
2018-12-07T10:26:40.795Z,11.50
2018-12-07T10:29:14.991Z,11.50
2018-12-07T10:31:49.067Z,11.50
2018-12-07T10:34:23.245Z,11.50
2018-12-07T10:36:57.266Z,11.50
2018-12-07T10:39:31.676Z,11.50
2018-12-07T10:42:06.932Z,11.50
2018-12-07T10:44:41.328Z,11.50
2018-12-07T10:47:15.307Z,11.40
2018-12-07T10:49:49.454Z,11.40
2018-12-07T10:52:23.987Z,11.40
2018-12-07T10:54:58.062Z,11.40
2018-12-07T10:57:32.198Z,11.40
2018-12-07T11:00:09.376Z,11.40
2018-12-07T11:02:49.168Z,11.50
2018-12-07T11:05:29.046Z,11.50
2018-12-07T11:08:08.523Z,11.50
2018-12-07T11:10:48.073Z,11.50
2018-12-07T11:16:31.812Z,11.40
2018-12-07T11:19:11.714Z,11.50
2018-12-07T11:21:51.714Z,11.50
2018-12-07T11:24:31.302Z,11.50
2018-12-07T11:27:11.125Z,11.50
2018-12-07T11:29:50.842Z,11.50
2018-12-07T11:32:26.928Z,11.50
2018-12-07T11:35:02.831Z,11.50
2018-12-07T11:37:36.862Z,11.50
2018-12-07T11:40:10.850Z,11.50
2018-12-07T11:42:45.003Z,11.50
2018-12-07T11:45:19.130Z,11.50
2018-12-07T11:47:53.359Z,11.50
2018-12-07T11:50:27.346Z,11.50
2018-12-07T11:53:01.352Z,11.50
2018-12-07T11:55:35.442Z,11.50
2018-12-07T11:58:09.423Z,11.60
2018-12-07T12:00:43.538Z,11.50
2018-12-07T12:03:17.698Z,11.50
2018-12-07T12:05:51.775Z,11.50
2018-12-07T12:08:25.935Z,11.60
2018-12-07T12:11:00.032Z,11.60
2018-12-07T12:13:34.142Z,11.60
2018-12-07T12:16:08.915Z,11.60
2018-12-07T12:18:43.170Z,11.60
2018-12-07T12:21:17.155Z,11.60
2018-12-07T12:23:53.826Z,11.60
2018-12-07T12:26:27.467Z,11.60
2018-12-07T12:29:01.703Z,11.60
2018-12-07T12:31:36.462Z,11.60
2018-12-07T12:34:10.577Z,11.60
2018-12-07T12:36:44.655Z,11.60
2018-12-07T12:39:19.023Z,11.60
2018-12-07T12:41:53.732Z,11.60
2018-12-07T12:44:28.068Z,11.60
2018-12-07T12:47:02.995Z,11.50
2018-12-07T12:49:37.011Z,11.50
2018-12-07T12:52:11.078Z,11.50
2018-12-07T12:54:45.533Z,11.50
2018-12-07T12:57:20.099Z,11.50
2018-12-07T12:59:54.354Z,11.50
2018-12-07T13:02:28.321Z,11.50
2018-12-07T13:05:02.912Z,11.40
2018-12-07T13:07:36.771Z,11.40
2018-12-07T13:10:11.144Z,11.40
2018-12-07T13:12:46.073Z,11.40
2018-12-07T13:15:20.311Z,11.40
2018-12-07T13:17:55.837Z,11.40
2018-12-07T13:20:30.380Z,11.40
2018-12-07T13:23:04.403Z,11.40
2018-12-07T13:25:38.710Z,11.40
2018-12-07T13:28:12.724Z,11.40
2018-12-07T13:30:47.009Z,11.40
2018-12-07T13:33:21.016Z,11.30
2018-12-07T13:35:55.310Z,11.30
2018-12-07T13:38:29.369Z,11.30
2018-12-07T13:41:03.871Z,11.30
2018-12-07T13:43:38.496Z,11.30
2018-12-07T13:46:12.875Z,11.30
2018-12-07T13:48:47.148Z,11.30
2018-12-07T13:51:21.575Z,11.30
2018-12-07T13:53:55.575Z,11.30
2018-12-07T13:56:29.728Z,11.30
2018-12-07T13:59:03.878Z,11.40
2018-12-07T14:01:38.127Z,11.40
2018-12-07T14:04:12.396Z,11.40
2018-12-07T14:06:46.718Z,11.50
2018-12-07T14:09:20.801Z,11.40
2018-12-07T14:11:55.124Z,11.40
2018-12-07T14:14:29.926Z,11.40
2018-12-07T14:17:04.965Z,11.40
2018-12-07T14:19:39.058Z,11.40
2018-12-07T14:22:13.264Z,11.40
2018-12-07T14:24:47.240Z,11.40
2018-12-07T14:27:21.489Z,11.40
2018-12-07T14:29:55.912Z,11.40
2018-12-07T14:32:30.821Z,11.40
2018-12-07T14:35:05.373Z,11.30
2018-12-07T14:37:39.927Z,11.30
2018-12-07T14:40:14.173Z,11.30
2018-12-07T14:42:48.326Z,11.30
2018-12-07T14:45:22.355Z,11.30
2018-12-07T14:47:56.620Z,11.20
2018-12-07T14:50:30.844Z,11.20
2018-12-07T14:53:05.196Z,11.20
2018-12-07T14:55:39.557Z,11.20
2018-12-07T14:58:14.177Z,11.20
2018-12-07T15:00:48.195Z,11.10
2018-12-07T15:03:22.379Z,11.10
2018-12-07T15:05:57.107Z,11.10
2018-12-07T15:08:31.846Z,11.20
2018-12-07T15:11:06.100Z,11.20
2018-12-07T15:13:40.241Z,11.20
2018-12-07T15:16:14.258Z,11.20
2018-12-07T15:18:48.427Z,11.20
2018-12-07T15:21:22.510Z,11.20
2018-12-07T15:23:56.687Z,11.20
2018-12-07T15:26:30.805Z,11.20
2018-12-07T15:29:05.205Z,11.20
2018-12-07T15:31:39.265Z,11.20
2018-12-07T15:34:13.574Z,11.20
2018-12-07T15:36:49.048Z,11.20
2018-12-07T15:39:23.582Z,11.20
2018-12-07T15:41:57.854Z,11.20
2018-12-07T15:44:32.057Z,11.20
2018-12-07T15:47:06.143Z,11.20
2018-12-07T15:49:42.530Z,11.20
2018-12-07T15:52:16.815Z,11.20
2018-12-07T15:54:51.278Z,11.20
2018-12-07T15:57:25.733Z,11.10
2018-12-07T16:00:00.214Z,11.20
2018-12-07T16:02:34.882Z,11.10
2018-12-07T16:05:09.868Z,11.10
2018-12-07T16:07:44.298Z,11.10
2018-12-07T16:10:18.618Z,11.10
2018-12-07T16:12:52.694Z,11.10
2018-12-07T16:15:26.858Z,11.10
2018-12-07T16:18:00.962Z,11.10
2018-12-07T16:20:35.207Z,11.00
2018-12-07T16:23:09.308Z,11.10
2018-12-07T16:25:43.423Z,11.10
2018-12-07T16:28:17.686Z,11.10
2018-12-07T16:30:51.879Z,11.10
2018-12-07T16:33:25.841Z,11.10
2018-12-07T16:36:00.073Z,11.10
2018-12-07T16:38:34.155Z,11.10
2018-12-07T16:41:08.492Z,11.00
2018-12-07T16:43:44.007Z,11.00
2018-12-07T16:46:18.447Z,11.00
2018-12-07T16:48:53.356Z,11.00
2018-12-07T16:51:27.765Z,11.00
2018-12-07T16:54:01.886Z,11.00
2018-12-07T16:56:36.414Z,10.90
2018-12-07T16:59:10.825Z,10.90
2018-12-07T17:01:45.196Z,10.90
2018-12-07T17:04:19.358Z,11.00
2018-12-07T17:06:53.868Z,10.90
2018-12-07T17:09:27.789Z,10.90
2018-12-07T17:12:02.009Z,10.90
2018-12-07T17:14:36.037Z,10.90
2018-12-07T17:17:10.168Z,10.90
2018-12-07T17:19:44.480Z,10.90
2018-12-07T17:22:18.968Z,10.90
2018-12-07T17:24:53.337Z,10.90
2018-12-07T17:27:27.806Z,11.00
2018-12-07T17:30:01.937Z,11.00
2018-12-07T17:32:36.528Z,11.00
2018-12-07T17:35:10.678Z,10.90
2018-12-07T17:37:45.733Z,11.00
2018-12-07T17:40:19.827Z,11.00
2018-12-07T17:42:54.255Z,11.00
2018-12-07T17:45:28.287Z,11.00
2018-12-07T17:48:02.383Z,11.00
2018-12-07T17:50:37.175Z,11.00
2018-12-07T17:53:11.431Z,11.00
2018-12-07T17:55:45.596Z,11.00
2018-12-07T17:58:20.145Z,11.00
2018-12-07T18:00:54.643Z,11.00
2018-12-07T18:03:28.850Z,11.00
2018-12-07T18:06:02.872Z,11.00
2018-12-07T18:08:37.041Z,11.00
2018-12-07T18:11:11.619Z,11.00
2018-12-07T18:13:46.354Z,11.00
2018-12-07T18:16:21.866Z,10.90
2018-12-07T18:18:55.993Z,10.90
2018-12-07T18:21:30.139Z,10.90
2018-12-07T18:24:04.405Z,10.90
2018-12-07T18:26:38.663Z,10.90
2018-12-07T18:29:13.428Z,10.90
2018-12-07T18:31:47.872Z,10.90
2018-12-07T18:34:22.107Z,10.90
2018-12-07T18:36:56.271Z,10.90
2018-12-07T18:39:30.801Z,10.80
2018-12-07T18:42:05.170Z,10.80
2018-12-07T18:44:39.651Z,10.80
2018-12-07T18:47:13.880Z,10.80
2018-12-07T18:49:47.925Z,10.80
2018-12-07T18:52:22.094Z,10.80
2018-12-07T18:54:56.232Z,10.80
2018-12-07T18:57:30.480Z,10.80
2018-12-07T19:00:06.796Z,10.80
2018-12-07T19:02:41.462Z,10.80
2018-12-07T19:05:15.748Z,10.80
2018-12-07T19:07:49.905Z,10.70
2018-12-07T19:10:24.389Z,10.80
2018-12-07T19:13:00.442Z,10.70
2018-12-07T19:15:34.649Z,10.70
2018-12-07T19:18:08.766Z,10.70
2018-12-07T19:20:43.088Z,10.70
2018-12-07T19:23:17.224Z,10.70
2018-12-07T19:25:51.478Z,10.70
2018-12-07T19:28:25.564Z,10.70
2018-12-07T19:30:59.888Z,10.60
2018-12-07T19:33:33.917Z,10.60
2018-12-07T19:36:08.164Z,10.60
2018-12-07T19:38:42.655Z,10.60
2018-12-07T19:41:16.992Z,10.60
2018-12-07T19:43:51.169Z,10.60
2018-12-07T19:46:25.672Z,10.60
2018-12-07T19:49:00.055Z,10.60
2018-12-07T19:51:34.433Z,10.60
2018-12-07T19:54:08.686Z,10.60
2018-12-07T19:56:42.985Z,10.60
2018-12-07T19:59:17.082Z,10.50
2018-12-07T20:01:51.355Z,10.50
2018-12-07T20:04:25.510Z,10.50
2018-12-07T20:07:00.718Z,10.50
2018-12-07T20:09:35.213Z,10.50
2018-12-07T20:12:10.099Z,10.50
2018-12-07T20:14:44.653Z,10.50
2018-12-07T20:17:19.088Z,10.50
2018-12-07T20:19:53.306Z,10.40
2018-12-07T20:22:27.522Z,9.80
2018-12-07T20:25:01.581Z,9.50
2018-12-07T20:27:35.850Z,9.30
2018-12-07T20:30:09.775Z,9.20
2018-12-07T20:32:44.093Z,9.10
2018-12-07T20:35:18.489Z,9.00
2018-12-07T20:37:52.970Z,8.90
2018-12-07T20:40:27.155Z,8.90
2018-12-07T20:43:01.404Z,8.90
2018-12-07T20:45:35.423Z,8.90
2018-12-07T20:48:09.578Z,8.80
2018-12-07T20:50:43.937Z,8.80
2018-12-07T20:53:18.966Z,8.70
2018-12-07T20:55:53.432Z,8.70
2018-12-07T20:58:27.527Z,8.70
2018-12-07T21:01:01.754Z,8.60
2018-12-07T21:03:50.010Z,8.60
2018-12-07T21:13:48.843Z,8.40
2018-12-07T21:17:06.100Z,8.30
2018-12-07T21:19:44.925Z,8.30
2018-12-07T21:22:19.257Z,8.20
2018-12-07T21:24:53.874Z,8.20
2018-12-07T21:27:28.413Z,8.00
2018-12-07T21:30:08.443Z,8.00
2018-12-07T21:32:42.627Z,7.90
2018-12-07T21:35:17.005Z,7.90
2018-12-07T21:37:51.325Z,7.90
2018-12-07T21:40:25.433Z,7.90
2018-12-07T21:43:00.081Z,7.90
2018-12-07T21:45:34.413Z,7.80
2018-12-07T21:48:23.765Z,7.80
2018-12-07T21:51:11.583Z,7.80
2018-12-07T21:53:45.666Z,7.80
2018-12-07T21:56:19.862Z,7.80
2018-12-07T21:58:54.361Z,7.80
2018-12-07T22:01:29.164Z,7.70
2018-12-07T22:04:03.613Z,7.70
2018-12-07T22:06:37.658Z,7.70
2018-12-07T22:09:11.754Z,7.70
2018-12-07T22:11:47.030Z,7.60
2018-12-07T22:14:21.344Z,7.60
2018-12-07T22:16:55.584Z,7.60
2018-12-07T22:19:30.300Z,7.50
2018-12-07T22:22:05.425Z,7.50
2018-12-07T22:24:39.637Z,7.50
2018-12-07T22:27:13.659Z,7.40
2018-12-07T22:29:48.112Z,7.50
2018-12-07T22:32:22.397Z,7.50
2018-12-07T22:34:56.602Z,7.60
2018-12-07T22:37:30.804Z,7.60
2018-12-07T22:40:06.853Z,7.60
2018-12-07T22:42:41.734Z,7.50
2018-12-07T22:45:16.284Z,7.40
2018-12-07T22:47:50.670Z,7.40
2018-12-07T22:50:25.121Z,7.40
2018-12-07T22:52:59.215Z,7.30
2018-12-07T22:55:33.968Z,7.30
2018-12-07T22:58:08.809Z,7.30
2018-12-07T23:00:43.673Z,7.20
2018-12-07T23:03:17.816Z,7.30
2018-12-07T23:05:52.170Z,7.20
2018-12-07T23:08:26.073Z,7.20
2018-12-07T23:11:00.579Z,7.20
2018-12-07T23:13:34.611Z,7.20
2018-12-07T23:16:09.951Z,7.10
2018-12-07T23:18:43.980Z,7.10
2018-12-07T23:21:18.299Z,7.10
2018-12-07T23:23:52.327Z,7.10
2018-12-07T23:26:26.517Z,7.10
2018-12-07T23:29:00.442Z,7.10
2018-12-07T23:31:34.944Z,7.00
2018-12-07T23:34:08.848Z,7.00
2018-12-07T23:36:42.961Z,7.00
2018-12-07T23:39:16.963Z,7.00
2018-12-07T23:41:51.401Z,7.00
2018-12-07T23:44:25.359Z,7.00
2018-12-07T23:46:59.626Z,7.10
2018-12-07T23:49:33.647Z,7.00
2018-12-07T23:52:08.059Z,7.10
2018-12-07T23:54:42.274Z,7.10
2018-12-07T23:57:16.487Z,7.00
2018-12-07T23:59:50.526Z,7.00
